sensor_id;sensor_type;location;lat;lon;timestamp;pressure;altitude;pressure_sealevel;temperature;humidity
62548;BME280;48602;45.192;5.722;2022-12-07T00:01:08;99423.31;;;2.55;87.52
62548;BME280;48602;45.192;5.722;2022-12-07T00:03:34;99412.88;;;2.55;87.54
62548;BME280;48602;45.192;5.722;2022-12-07T00:06:01;99413.75;;;2.56;87.83
62548;BME280;48602;45.192;5.722;2022-12-07T00:08:26;99408.56;;;2.56;87.54
62548;BME280;48602;45.192;5.722;2022-12-07T00:10:52;99414.63;;;2.55;87.09
62548;BME280;48602;45.192;5.722;2022-12-07T00:13:17;99406.81;;;2.55;87.71
62548;BME280;48602;45.192;5.722;2022-12-07T00:15:43;99405.09;;;2.57;87.52
62548;BME280;48602;45.192;5.722;2022-12-07T00:18:09;99408.53;;;2.60;87.63
62548;BME280;48602;45.192;5.722;2022-12-07T00:20:34;99402.47;;;2.61;87.17
62548;BME280;48602;45.192;5.722;2022-12-07T00:23:00;99403.34;;;2.60;87.75
62548;BME280;48602;45.192;5.722;2022-12-07T00:25:26;99405.06;;;2.61;87.71
62548;BME280;48602;45.192;5.722;2022-12-07T00:27:54;99410.28;;;2.64;87.44
62548;BME280;48602;45.192;5.722;2022-12-07T00:30:23;99405.94;;;2.65;87.63
62548;BME280;48602;45.192;5.722;2022-12-07T00:32:49;99407.69;;;2.63;87.53
62548;BME280;48602;45.192;5.722;2022-12-07T00:35:14;99402.47;;;2.61;87.44
62548;BME280;48602;45.192;5.722;2022-12-07T00:37:40;99405.09;;;2.58;87.56
62548;BME280;48602;45.192;5.722;2022-12-07T00:40:06;99408.56;;;2.54;87.67
62548;BME280;48602;45.192;5.722;2022-12-07T00:42:32;99401.63;;;2.52;87.45
62548;BME280;48602;45.192;5.722;2022-12-07T00:44:57;99407.72;;;2.49;87.89
62548;BME280;48602;45.192;5.722;2022-12-07T00:47:22;99408.59;;;2.48;87.93
62548;BME280;48602;45.192;5.722;2022-12-07T00:49:48;99403.41;;;2.47;88.01
62548;BME280;48602;45.192;5.722;2022-12-07T00:52:13;99405.13;;;2.46;88.30
62548;BME280;48602;45.192;5.722;2022-12-07T00:54:39;99405.13;;;2.46;88.23
62548;BME280;48602;45.192;5.722;2022-12-07T00:57:05;99406.00;;;2.47;88.06
62548;BME280;48602;45.192;5.722;2022-12-07T00:59:30;99406.88;;;2.49;88.01
62548;BME280;48602;45.192;5.722;2022-12-07T01:01:56;99411.19;;;2.47;88.38
62548;BME280;48602;45.192;5.722;2022-12-07T01:04:21;99407.72;;;2.48;88.30
62548;BME280;48602;45.192;5.722;2022-12-07T01:06:46;99415.53;;;2.48;88.44
62548;BME280;48602;45.192;5.722;2022-12-07T01:09:12;99411.19;;;2.45;88.21
62548;BME280;48602;45.192;5.722;2022-12-07T01:11:37;99419.88;;;2.44;88.57
62548;BME280;48602;45.192;5.722;2022-12-07T01:14:03;99418.16;;;2.41;88.55
62548;BME280;48602;45.192;5.722;2022-12-07T01:16:30;99414.69;;;2.39;88.99
62548;BME280;48602;45.192;5.722;2022-12-07T01:18:57;99414.69;;;2.41;89.07
62548;BME280;48602;45.192;5.722;2022-12-07T01:21:25;99418.16;;;2.41;88.71
62548;BME280;48602;45.192;5.722;2022-12-07T01:23:51;99407.75;;;2.40;88.39
62548;BME280;48602;45.192;5.722;2022-12-07T01:26:19;99417.28;;;2.39;88.73
62548;BME280;48602;45.192;5.722;2022-12-07T01:28:45;99413.81;;;2.37;88.70
62548;BME280;48602;45.192;5.722;2022-12-07T01:31:13;99409.47;;;2.38;88.75
62548;BME280;48602;45.192;5.722;2022-12-07T01:33:41;99412.06;;;2.39;88.55
62548;BME280;48602;45.192;5.722;2022-12-07T01:36:13;99417.28;;;2.41;88.59
62548;BME280;48602;45.192;5.722;2022-12-07T01:38:40;99419.88;;;2.44;88.45
62548;BME280;48602;45.192;5.722;2022-12-07T01:41:05;99408.59;;;2.43;88.79
62548;BME280;48602;45.192;5.722;2022-12-07T01:43:32;99409.47;;;2.44;88.51
62548;BME280;48602;45.192;5.722;2022-12-07T01:45:59;99406.00;;;2.43;88.90
62548;BME280;48602;45.192;5.722;2022-12-07T01:48:35;99393.84;;;2.44;88.52
62548;BME280;48602;45.192;5.722;2022-12-07T01:51:06;99412.06;;;2.47;88.92
62548;BME280;48602;45.192;5.722;2022-12-07T01:53:36;99400.78;;;2.48;88.90
62548;BME280;48602;45.192;5.722;2022-12-07T01:56:05;99403.41;;;2.48;88.59
62548;BME280;48602;45.192;5.722;2022-12-07T01:58:31;99399.91;;;2.49;88.86
62548;BME280;48602;45.192;5.722;2022-12-07T02:00:56;99399.91;;;2.49;88.30
62548;BME280;48602;45.192;5.722;2022-12-07T02:03:29;99392.97;;;2.51;88.11
62548;BME280;48602;45.192;5.722;2022-12-07T02:05:57;99393.81;;;2.52;88.77
62548;BME280;48602;45.192;5.722;2022-12-07T02:08:24;99395.53;;;2.53;88.44
62548;BME280;48602;45.192;5.722;2022-12-07T02:10:50;99398.16;;;2.53;88.75
62548;BME280;48602;45.192;5.722;2022-12-07T02:13:20;99390.34;;;2.54;88.72
62548;BME280;48602;45.192;5.722;2022-12-07T02:26:29;99380.78;;;2.59;88.55
62548;BME280;48602;45.192;5.722;2022-12-07T02:31:56;99383.38;;;2.61;88.47
62548;BME280;48602;45.192;5.722;2022-12-07T02:37:01;99385.13;;;2.59;88.76
62548;BME280;48602;45.192;5.722;2022-12-07T02:39:37;99384.25;;;2.58;88.78
62548;BME280;48602;45.192;5.722;2022-12-07T02:42:12;99375.59;;;2.58;89.20
62548;BME280;48602;45.192;5.722;2022-12-07T02:44:39;99375.59;;;2.56;88.63
62548;BME280;48602;45.192;5.722;2022-12-07T02:47:09;99377.31;;;2.59;88.93
62548;BME280;48602;45.192;5.722;2022-12-07T02:49:38;99385.13;;;2.62;88.72
62548;BME280;48602;45.192;5.722;2022-12-07T02:52:05;99382.50;;;2.68;89.13
62548;BME280;48602;45.192;5.722;2022-12-07T02:54:30;99385.94;;;2.71;88.93
62548;BME280;48602;45.192;5.722;2022-12-07T03:02:52;99380.66;;;2.87;88.68
62548;BME280;48602;45.192;5.722;2022-12-07T03:13:37;99375.34;;;3.03;87.97
62548;BME280;48602;45.192;5.722;2022-12-07T03:18:38;99371.00;;;3.04;87.92
62548;BME280;48602;45.192;5.722;2022-12-07T03:21:11;99371.00;;;3.04;87.71
62548;BME280;48602;45.192;5.722;2022-12-07T03:23:41;99371.00;;;3.04;87.62
62548;BME280;48602;45.192;5.722;2022-12-07T03:26:09;99368.41;;;3.04;87.63
62548;BME280;48602;45.192;5.722;2022-12-07T03:28:43;99370.13;;;3.05;87.48
62548;BME280;48602;45.192;5.722;2022-12-07T03:34:22;99362.31;;;3.11;87.44
62548;BME280;48602;45.192;5.722;2022-12-07T03:36:50;99360.56;;;3.13;87.65
62548;BME280;48602;45.192;5.722;2022-12-07T03:41:52;99365.75;;;3.18;87.48
62548;BME280;48602;45.192;5.722;2022-12-07T03:44:20;99361.34;;;3.20;87.28
62548;BME280;48602;45.192;5.722;2022-12-07T03:47:04;99363.94;;;3.21;87.10
62548;BME280;48602;45.192;5.722;2022-12-07T03:50:11;99358.72;;;3.23;87.02
62548;BME280;48602;45.192;5.722;2022-12-07T03:53:05;99359.59;;;3.25;87.02
62548;BME280;48602;45.192;5.722;2022-12-07T03:55:37;99355.25;;;3.27;87.20
62548;BME280;48602;45.192;5.722;2022-12-07T03:58:09;99363.03;;;3.33;86.88
62548;BME280;48602;45.192;5.722;2022-12-07T04:00:36;99354.34;;;3.34;86.92
62548;BME280;48602;45.192;5.722;2022-12-07T04:03:01;99348.25;;;3.33;86.67
62548;BME280;48602;45.192;5.722;2022-12-07T04:05:28;99349.09;;;3.35;86.78
62548;BME280;48602;45.192;5.722;2022-12-07T04:07:54;99344.72;;;3.37;86.88
62548;BME280;48602;45.192;5.722;2022-12-07T04:10:19;99336.03;;;3.40;86.93
62548;BME280;48602;45.192;5.722;2022-12-07T04:12:45;99341.22;;;3.44;86.94
62548;BME280;48602;45.192;5.722;2022-12-07T04:15:10;99333.38;;;3.47;86.82
62548;BME280;48602;45.192;5.722;2022-12-07T04:17:36;99341.13;;;3.52;86.64
62548;BME280;48602;45.192;5.722;2022-12-07T04:20:02;99331.56;;;3.53;86.31
62548;BME280;48602;45.192;5.722;2022-12-07T04:22:29;99334.22;;;3.51;86.62
62548;BME280;48602;45.192;5.722;2022-12-07T04:24:54;99329.00;;;3.51;85.95
62548;BME280;48602;45.192;5.722;2022-12-07T04:27:19;99338.53;;;3.52;85.90
62548;BME280;48602;45.192;5.722;2022-12-07T04:29:45;99341.13;;;3.54;86.31
62548;BME280;48602;45.192;5.722;2022-12-07T04:32:10;99339.38;;;3.54;85.96
62548;BME280;48602;45.192;5.722;2022-12-07T04:34:36;99339.38;;;3.53;85.59
62548;BME280;48602;45.192;5.722;2022-12-07T04:37:01;99338.53;;;3.52;86.05
62548;BME280;48602;45.192;5.722;2022-12-07T04:39:31;99339.38;;;3.54;86.77
62548;BME280;48602;45.192;5.722;2022-12-07T04:41:58;99345.47;;;3.55;86.02
62548;BME280;48602;45.192;5.722;2022-12-07T04:44:25;99335.91;;;3.54;85.86
62548;BME280;48602;45.192;5.722;2022-12-07T04:46:51;99335.91;;;3.55;86.20
62548;BME280;48602;45.192;5.722;2022-12-07T04:49:18;99332.41;;;3.58;86.05
62548;BME280;48602;45.192;5.722;2022-12-07T04:51:44;99326.31;;;3.57;86.14
62548;BME280;48602;45.192;5.722;2022-12-07T04:54:11;99325.44;;;3.58;85.63
62548;BME280;48602;45.192;5.722;2022-12-07T04:56:37;99328.06;;;3.55;85.63
62548;BME280;48602;45.192;5.722;2022-12-07T04:59:03;99329.81;;;3.55;86.18
62548;BME280;48602;45.192;5.722;2022-12-07T05:01:29;99323.72;;;3.56;86.19
62548;BME280;48602;45.192;5.722;2022-12-07T05:03:55;99328.06;;;3.57;86.47
62548;BME280;48602;45.192;5.722;2022-12-07T05:06:21;99324.56;;;3.59;86.05
62548;BME280;48602;45.192;5.722;2022-12-07T05:08:46;99318.50;;;3.60;86.18
62548;BME280;48602;45.192;5.722;2022-12-07T05:11:13;99316.72;;;3.64;85.83
62548;BME280;48602;45.192;5.722;2022-12-07T05:14:04;99320.19;;;3.66;86.07
62548;BME280;48602;45.192;5.722;2022-12-07T05:16:30;99318.44;;;3.66;85.83
62548;BME280;48602;45.192;5.722;2022-12-07T05:18:55;99314.91;;;3.69;85.49
62548;BME280;48602;45.192;5.722;2022-12-07T05:21:20;99304.47;;;3.70;85.25
62548;BME280;48602;45.192;5.722;2022-12-07T05:23:46;99309.66;;;3.73;84.85
62548;BME280;48602;45.192;5.722;2022-12-07T05:26:11;99304.41;;;3.78;84.92
62548;BME280;48602;45.192;5.722;2022-12-07T05:28:37;99309.59;;;3.81;84.63
62548;BME280;48602;45.192;5.722;2022-12-07T05:31:02;99299.16;;;3.82;84.44
62548;BME280;48602;45.192;5.722;2022-12-07T05:33:28;99299.16;;;3.84;84.79
62548;BME280;48602;45.192;5.722;2022-12-07T05:35:54;99290.44;;;3.85;84.44
62548;BME280;48602;45.192;5.722;2022-12-07T05:38:19;99282.63;;;3.85;83.81
62548;BME280;48602;45.192;5.722;2022-12-07T05:40:44;99281.75;;;3.84;83.95
62548;BME280;48602;45.192;5.722;2022-12-07T05:43:10;99283.50;;;3.84;83.54
62548;BME280;48602;45.192;5.722;2022-12-07T05:45:36;99281.78;;;3.81;83.63
62548;BME280;48602;45.192;5.722;2022-12-07T05:48:01;99281.78;;;3.81;83.66
62548;BME280;48602;45.192;5.722;2022-12-07T05:50:27;99293.94;;;3.84;83.88
62548;BME280;48602;45.192;5.722;2022-12-07T05:52:53;99296.50;;;3.85;83.51
62548;BME280;48602;45.192;5.722;2022-12-07T05:55:18;99295.69;;;3.83;83.24
62548;BME280;48602;45.192;5.722;2022-12-07T05:57:44;99295.69;;;3.83;83.59
62548;BME280;48602;45.192;5.722;2022-12-07T06:00:29;99297.44;;;3.81;83.90
62548;BME280;48602;45.192;5.722;2022-12-07T06:02:55;99297.44;;;3.80;83.28
62548;BME280;48602;45.192;5.722;2022-12-07T06:05:20;99296.59;;;3.76;83.40
62548;BME280;48602;45.192;5.722;2022-12-07T06:07:45;99301.81;;;3.76;83.68
62548;BME280;48602;45.192;5.722;2022-12-07T06:10:11;99300.97;;;3.74;83.59
62548;BME280;48602;45.192;5.722;2022-12-07T06:12:36;99294.91;;;3.71;82.82
62548;BME280;48602;45.192;5.722;2022-12-07T06:15:05;99293.25;;;3.67;83.01
62548;BME280;48602;45.192;5.722;2022-12-07T06:17:30;99298.50;;;3.62;83.29
62548;BME280;48602;45.192;5.722;2022-12-07T06:19:56;99299.38;;;3.58;83.52
62548;BME280;48602;45.192;5.722;2022-12-07T06:22:21;99295.94;;;3.53;83.42
62548;BME280;48602;45.192;5.722;2022-12-07T06:24:47;99295.16;;;3.48;83.44
62548;BME280;48602;45.192;5.722;2022-12-07T06:27:12;99302.13;;;3.43;83.55
62548;BME280;48602;45.192;5.722;2022-12-07T06:29:38;99305.63;;;3.40;83.83
62548;BME280;48602;45.192;5.722;2022-12-07T06:32:04;99306.53;;;3.36;83.72
62548;BME280;48602;45.192;5.722;2022-12-07T06:34:30;99302.22;;;3.34;83.36
62548;BME280;48602;45.192;5.722;2022-12-07T06:36:55;99298.75;;;3.32;84.05
62548;BME280;48602;45.192;5.722;2022-12-07T06:39:23;99301.34;;;3.33;84.49
62548;BME280;48602;45.192;5.722;2022-12-07T06:41:49;99297.00;;;3.34;84.28
62548;BME280;48602;45.192;5.722;2022-12-07T06:44:17;99297.00;;;3.34;84.06
62548;BME280;48602;45.192;5.722;2022-12-07T06:46:42;99299.63;;;3.34;83.71
62548;BME280;48602;45.192;5.722;2022-12-07T06:49:08;99299.63;;;3.34;83.42
62548;BME280;48602;45.192;5.722;2022-12-07T06:51:34;99292.69;;;3.33;84.17
62548;BME280;48602;45.192;5.722;2022-12-07T06:54:04;99299.63;;;3.34;83.94
62548;BME280;48602;45.192;5.722;2022-12-07T06:56:29;99299.63;;;3.34;84.59
62548;BME280;48602;45.192;5.722;2022-12-07T06:58:55;99294.44;;;3.31;84.73
62548;BME280;48602;45.192;5.722;2022-12-07T07:01:21;99294.47;;;3.26;84.78
62548;BME280;48602;45.192;5.722;2022-12-07T07:03:47;99295.34;;;3.22;85.35
62548;BME280;48602;45.192;5.722;2022-12-07T07:06:13;99292.75;;;3.22;85.59
62548;BME280;48602;45.192;5.722;2022-12-07T07:08:39;99291.00;;;3.23;85.66
62548;BME280;48602;45.192;5.722;2022-12-07T07:11:06;99297.09;;;3.23;85.93
62548;BME280;48602;45.192;5.722;2022-12-07T07:13:32;99300.53;;;3.25;85.58
62548;BME280;48602;45.192;5.722;2022-12-07T07:15:57;99296.22;;;3.24;85.55
62548;BME280;48602;45.192;5.722;2022-12-07T07:18:23;99296.22;;;3.23;85.41
62548;BME280;48602;45.192;5.722;2022-12-07T07:20:50;99294.47;;;3.23;85.09
62548;BME280;48602;45.192;5.722;2022-12-07T07:23:16;99299.69;;;3.25;85.48
62548;BME280;48602;45.192;5.722;2022-12-07T07:25:41;99298.81;;;3.23;84.95
62548;BME280;48602;45.192;5.722;2022-12-07T07:28:07;99306.63;;;3.24;85.56
62548;BME280;48602;45.192;5.722;2022-12-07T07:30:32;99304.91;;;3.23;85.21
62548;BME280;48602;45.192;5.722;2022-12-07T07:32:59;99310.09;;;3.25;85.36
62548;BME280;48602;45.192;5.722;2022-12-07T07:35:25;99304.03;;;3.24;84.67
62548;BME280;48602;45.192;5.722;2022-12-07T07:37:51;99306.63;;;3.23;84.28
62548;BME280;48602;45.192;5.722;2022-12-07T07:40:17;99316.19;;;3.21;84.27
62548;BME280;48602;45.192;5.722;2022-12-07T07:42:43;99321.41;;;3.21;84.43
62548;BME280;48602;45.192;5.722;2022-12-07T07:45:08;99317.06;;;3.21;84.23
62548;BME280;48602;45.192;5.722;2022-12-07T07:47:34;99316.19;;;3.22;84.16
62548;BME280;48602;45.192;5.722;2022-12-07T07:49:59;99313.59;;;3.22;84.21
62548;BME280;48602;45.192;5.722;2022-12-07T07:52:25;99315.31;;;3.25;84.33
62548;BME280;48602;45.192;5.722;2022-12-07T07:54:51;99322.25;;;3.26;83.92
62548;BME280;48602;45.192;5.722;2022-12-07T07:57:19;99315.31;;;3.25;83.98
62548;BME280;48602;45.192;5.722;2022-12-07T07:59:45;99314.44;;;3.26;83.91
62548;BME280;48602;45.192;5.722;2022-12-07T08:02:15;99310.97;;;3.25;83.83
62548;BME280;48602;45.192;5.722;2022-12-07T08:04:41;99310.97;;;3.25;83.83
62548;BME280;48602;45.192;5.722;2022-12-07T08:07:06;99310.09;;;3.25;84.13
62548;BME280;48602;45.192;5.722;2022-12-07T08:09:32;99313.56;;;3.27;84.50
62548;BME280;48602;45.192;5.722;2022-12-07T08:11:57;99317.03;;;3.29;84.19
62548;BME280;48602;45.192;5.722;2022-12-07T08:14:24;99319.63;;;3.29;83.94
62548;BME280;48602;45.192;5.722;2022-12-07T08:16:49;99320.50;;;3.29;84.17
62548;BME280;48602;45.192;5.722;2022-12-07T08:19:15;99320.47;;;3.31;84.00
62548;BME280;48602;45.192;5.722;2022-12-07T08:21:40;99324.84;;;3.29;84.28
62548;BME280;48602;45.192;5.722;2022-12-07T08:24:06;99329.19;;;3.27;84.11
62548;BME280;48602;45.192;5.722;2022-12-07T08:26:32;99338.75;;;3.26;84.10
62548;BME280;48602;45.192;5.722;2022-12-07T08:28:57;99331.81;;;3.25;83.55
62548;BME280;48602;45.192;5.722;2022-12-07T08:31:23;99327.47;;;3.24;84.07
62548;BME280;48602;45.192;5.722;2022-12-07T08:33:49;99331.81;;;3.25;83.62
62548;BME280;48602;45.192;5.722;2022-12-07T08:36:15;99332.69;;;3.23;83.26
62548;BME280;48602;45.192;5.722;2022-12-07T08:38:41;99341.38;;;3.23;83.63
62548;BME280;48602;45.192;5.722;2022-12-07T08:41:07;99335.25;;;3.27;83.34
62548;BME280;48602;45.192;5.722;2022-12-07T08:43:34;99340.47;;;3.29;83.21
62548;BME280;48602;45.192;5.722;2022-12-07T08:46:21;99340.44;;;3.32;83.00
62548;BME280;48602;45.192;5.722;2022-12-07T08:48:56;99346.53;;;3.34;82.62
62548;BME280;48602;45.192;5.722;2022-12-07T08:51:24;99340.44;;;3.35;82.92
62548;BME280;48602;45.192;5.722;2022-12-07T08:53:51;99343.84;;;3.40;83.07
62548;BME280;48602;45.192;5.722;2022-12-07T08:56:17;99341.22;;;3.41;82.36
62548;BME280;48602;45.192;5.722;2022-12-07T08:58:43;99337.75;;;3.42;81.99
62548;BME280;48602;45.192;5.722;2022-12-07T09:01:09;99337.72;;;3.45;82.14
62548;BME280;48602;45.192;5.722;2022-12-07T09:03:35;99341.19;;;3.47;82.27
62548;BME280;48602;45.192;5.722;2022-12-07T09:06:00;99352.47;;;3.48;81.68
62548;BME280;48602;45.192;5.722;2022-12-07T09:08:36;99348.13;;;3.48;81.95
62548;BME280;48602;45.192;5.722;2022-12-07T09:11:03;99351.56;;;3.52;81.46
62548;BME280;48602;45.192;5.722;2022-12-07T09:13:28;99346.34;;;3.52;81.69
62548;BME280;48602;45.192;5.722;2022-12-07T09:15:53;99347.19;;;3.56;81.79
62548;BME280;48602;45.192;5.722;2022-12-07T09:18:19;99352.38;;;3.62;81.31
62548;BME280;48602;45.192;5.722;2022-12-07T09:20:44;99353.19;;;3.67;81.39
62548;BME280;48602;45.192;5.722;2022-12-07T09:23:10;99360.09;;;3.72;81.48
62548;BME280;48602;45.192;5.722;2022-12-07T09:25:36;99358.28;;;3.80;80.84
62548;BME280;48602;45.192;5.722;2022-12-07T09:28:01;99358.25;;;3.85;80.92
62548;BME280;48602;45.192;5.722;2022-12-07T09:30:28;99356.44;;;3.89;80.89
62548;BME280;48602;45.192;5.722;2022-12-07T09:32:55;99361.66;;;3.90;80.45
62548;BME280;48602;45.192;5.722;2022-12-07T09:35:21;99353.81;;;3.92;80.06
62548;BME280;48602;45.192;5.722;2022-12-07T09:37:47;99361.63;;;3.93;80.44
62548;BME280;48602;45.192;5.722;2022-12-07T09:40:13;99359.00;;;3.96;80.01
62548;BME280;48602;45.192;5.722;2022-12-07T09:42:43;99355.50;;;3.99;80.19
62548;BME280;48602;45.192;5.722;2022-12-07T09:47:46;99359.75;;;4.06;79.80
62548;BME280;48602;45.192;5.722;2022-12-07T09:50:17;99354.50;;;4.12;79.28
62548;BME280;48602;45.192;5.722;2022-12-07T09:52:45;99357.06;;;4.18;79.49
62548;BME280;48602;45.192;5.722;2022-12-07T09:55:16;99355.25;;;4.21;79.54
62548;BME280;48602;45.192;5.722;2022-12-07T09:57:44;99355.22;;;4.23;79.35
62548;BME280;48602;45.192;5.722;2022-12-07T10:00:16;99352.63;;;4.23;79.59
62548;BME280;48602;45.192;5.722;2022-12-07T10:02:43;99357.81;;;4.25;79.48
62548;BME280;48602;45.192;5.722;2022-12-07T10:05:14;99346.50;;;4.27;79.56
62548;BME280;48602;45.192;5.722;2022-12-07T10:07:40;99336.88;;;4.32;79.64
62548;BME280;48602;45.192;5.722;2022-12-07T10:10:14;99342.00;;;4.38;79.57
62548;BME280;48602;45.192;5.722;2022-12-07T10:12:55;99335.00;;;4.43;80.11
62548;BME280;48602;45.192;5.722;2022-12-07T10:15:21;99331.50;;;4.44;80.50
62548;BME280;48602;45.192;5.722;2022-12-07T10:17:52;99323.63;;;4.49;80.43
62548;BME280;48602;45.192;5.722;2022-12-07T10:20:26;99327.03;;;4.52;80.20
62548;BME280;48602;45.192;5.722;2022-12-07T10:23:04;99324.41;;;4.55;80.18
62548;BME280;48602;45.192;5.722;2022-12-07T10:25:33;99318.28;;;4.56;79.84
62548;BME280;48602;45.192;5.722;2022-12-07T10:28:13;99312.19;;;4.57;79.68
62548;BME280;48602;45.192;5.722;2022-12-07T10:31:02;99311.31;;;4.59;80.33
62548;BME280;48602;45.192;5.722;2022-12-07T10:35:54;99299.91;;;4.67;80.85
62548;BME280;48602;45.192;5.722;2022-12-07T10:38:20;99298.97;;;4.70;80.56
62548;BME280;48602;45.192;5.722;2022-12-07T10:40:46;99305.88;;;4.74;80.14
62548;BME280;48602;45.192;5.722;2022-12-07T10:52:00;99288.28;;;4.86;78.17
62548;BME280;48602;45.192;5.722;2022-12-07T11:00:12;99271.84;;;4.81;78.34
62548;BME280;48602;45.192;5.722;2022-12-07T11:03:12;99278.75;;;4.85;78.60
62548;BME280;48602;45.192;5.722;2022-12-07T11:05:52;99275.22;;;4.86;78.58
62548;BME280;48602;45.192;5.722;2022-12-07T11:08:31;99269.09;;;4.87;78.54
62548;BME280;48602;45.192;5.722;2022-12-07T11:16:23;99263.72;;;5.00;78.21
62548;BME280;48602;45.192;5.722;2022-12-07T11:29:02;99252.78;;;5.29;76.80
62548;BME280;48602;45.192;5.722;2022-12-07T11:34:42;99244.06;;;5.30;76.79
62548;BME280;48602;45.192;5.722;2022-12-07T11:37:02;99237.88;;;5.35;76.11
62548;BME280;48602;45.192;5.722;2022-12-07T11:39:41;99235.19;;;5.38;75.16
62548;BME280;48602;45.192;5.722;2022-12-07T11:42:14;99229.88;;;5.43;74.85
62548;BME280;48602;45.192;5.722;2022-12-07T11:53:01;99221.75;;;5.59;75.13
62548;BME280;48602;45.192;5.722;2022-12-07T11:58:40;99213.88;;;5.61;75.12
62548;BME280;48602;45.192;5.722;2022-12-07T12:03:45;99223.56;;;5.54;74.73
62548;BME280;48602;45.192;5.722;2022-12-07T12:06:12;99220.94;;;5.54;74.76
62548;BME280;48602;45.192;5.722;2022-12-07T12:08:46;99213.06;;;5.56;74.77
62548;BME280;48602;45.192;5.722;2022-12-07T12:14:17;99216.44;;;5.64;74.62
62548;BME280;48602;45.192;5.722;2022-12-07T12:22:07;99218.03;;;5.71;73.53
62548;BME280;48602;45.192;5.722;2022-12-07T12:24:38;99216.25;;;5.73;73.54
62548;BME280;48602;45.192;5.722;2022-12-07T12:27:30;99211.91;;;5.72;73.09
62548;BME280;48602;45.192;5.722;2022-12-07T12:29:58;99216.25;;;5.72;73.08
62548;BME280;48602;45.192;5.722;2022-12-07T12:37:46;99213.69;;;5.70;72.95
62548;BME280;48602;45.192;5.722;2022-12-07T12:45:21;99209.50;;;5.61;73.21
62548;BME280;48602;45.192;5.722;2022-12-07T12:47:57;99207.75;;;5.62;73.51
62548;BME280;48602;45.192;5.722;2022-12-07T12:50:32;99198.16;;;5.63;73.75
62548;BME280;48602;45.192;5.722;2022-12-07T12:53:15;99197.22;;;5.67;73.75
62548;BME280;48602;45.192;5.722;2022-12-07T13:00:45;99204.13;;;5.69;74.47
62548;BME280;48602;45.192;5.722;2022-12-07T13:03:27;99196.31;;;5.68;74.11
62548;BME280;48602;45.192;5.722;2022-12-07T13:08:45;99191.94;;;5.68;73.95
62548;BME280;48602;45.192;5.722;2022-12-07T13:11:35;99192.81;;;5.69;73.91
62548;BME280;48602;45.192;5.722;2022-12-07T13:17:11;99182.41;;;5.66;73.71
62548;BME280;48602;45.192;5.722;2022-12-07T13:25:03;99171.09;;;5.65;73.96
62548;BME280;48602;45.192;5.722;2022-12-07T13:27:31;99169.38;;;5.63;73.65
62548;BME280;48602;45.192;5.722;2022-12-07T13:29:58;99172.84;;;5.63;73.74
62548;BME280;48602;45.192;5.722;2022-12-07T13:32:25;99166.75;;;5.63;73.78
62548;BME280;48602;45.192;5.722;2022-12-07T13:34:51;99160.69;;;5.60;73.70
62548;BME280;48602;45.192;5.722;2022-12-07T13:37:30;99161.66;;;5.56;73.55
62548;BME280;48602;45.192;5.722;2022-12-07T13:39:59;99162.56;;;5.54;73.61
62548;BME280;48602;45.192;5.722;2022-12-07T13:42:26;99158.19;;;5.54;73.55
62548;BME280;48602;45.192;5.722;2022-12-07T13:44:53;99155.63;;;5.53;73.83
62548;BME280;48602;45.192;5.722;2022-12-07T13:49:56;99151.25;;;5.53;73.47
62548;BME280;48602;45.192;5.722;2022-12-07T13:52:26;99151.25;;;5.53;73.56
62548;BME280;48602;45.192;5.722;2022-12-07T13:55:14;99152.03;;;5.57;73.82
62548;BME280;48602;45.192;5.722;2022-12-07T13:57:41;99155.56;;;5.56;73.68
62548;BME280;48602;45.192;5.722;2022-12-07T14:00:17;99162.56;;;5.54;73.32
62548;BME280;48602;45.192;5.722;2022-12-07T14:03:01;99156.53;;;5.52;73.26
62548;BME280;48602;45.192;5.722;2022-12-07T14:05:30;99153.91;;;5.52;73.50
62548;BME280;48602;45.192;5.722;2022-12-07T14:07:57;99156.56;;;5.49;73.29
62548;BME280;48602;45.192;5.722;2022-12-07T14:12:53;99160.16;;;5.43;73.24
62548;BME280;48602;45.192;5.722;2022-12-07T14:15:33;99164.53;;;5.43;72.82
62548;BME280;48602;45.192;5.722;2022-12-07T14:18:00;99161.03;;;5.44;73.14
62548;BME280;48602;45.192;5.722;2022-12-07T14:20:32;99160.16;;;5.43;72.98
62548;BME280;48602;45.192;5.722;2022-12-07T14:22:59;99160.16;;;5.43;73.17
62548;BME280;48602;45.192;5.722;2022-12-07T14:25:26;99155.78;;;5.44;72.86
62548;BME280;48602;45.192;5.722;2022-12-07T14:28:00;99160.16;;;5.43;72.76
62548;BME280;48602;45.192;5.722;2022-12-07T14:30:28;99165.38;;;5.43;72.76
62548;BME280;48602;45.192;5.722;2022-12-07T14:32:58;99164.53;;;5.43;73.18
62548;BME280;48602;45.192;5.722;2022-12-07T14:35:24;99157.59;;;5.40;72.72
62548;BME280;48602;45.192;5.722;2022-12-07T14:37:49;99154.97;;;5.40;72.92
62548;BME280;48602;45.192;5.722;2022-12-07T14:40:23;99148.84;;;5.43;72.62
62548;BME280;48602;45.192;5.722;2022-12-07T14:42:51;99151.47;;;5.43;72.46
62548;BME280;48602;45.192;5.722;2022-12-07T14:45:22;99157.53;;;5.45;72.20
62548;BME280;48602;45.192;5.722;2022-12-07T14:47:48;99150.56;;;5.44;72.46
62548;BME280;48602;45.192;5.722;2022-12-07T14:50:15;99154.97;;;5.40;72.46
62548;BME280;48602;45.192;5.722;2022-12-07T14:52:44;99153.28;;;5.38;72.54
62548;BME280;48602;45.192;5.722;2022-12-07T14:55:25;99152.41;;;5.37;72.68
62548;BME280;48602;45.192;5.722;2022-12-07T14:57:51;99156.78;;;5.37;72.60
62548;BME280;48602;45.192;5.722;2022-12-07T15:00:17;99153.38;;;5.35;72.46
62548;BME280;48602;45.192;5.722;2022-12-07T15:02:44;99148.94;;;5.37;72.46
62548;BME280;48602;45.192;5.722;2022-12-07T15:05:10;99155.91;;;5.38;72.54
62548;BME280;48602;45.192;5.722;2022-12-07T15:07:36;99150.66;;;5.38;72.48
62548;BME280;48602;45.192;5.722;2022-12-07T15:10:02;99145.44;;;5.38;72.31
62548;BME280;48602;45.192;5.722;2022-12-07T15:12:28;99147.19;;;5.37;72.46
62548;BME280;48602;45.192;5.722;2022-12-07T15:14:53;99137.66;;;5.36;72.28
62548;BME280;48602;45.192;5.722;2022-12-07T15:17:19;99136.78;;;5.36;72.62
62548;BME280;48602;45.192;5.722;2022-12-07T15:19:44;99137.66;;;5.36;72.52
62548;BME280;48602;45.192;5.722;2022-12-07T15:22:09;99134.22;;;5.34;72.25
62548;BME280;48602;45.192;5.722;2022-12-07T15:24:36;99145.53;;;5.35;72.13
62548;BME280;48602;45.192;5.722;2022-12-07T15:27:02;99139.50;;;5.31;72.29